sensor_id;sensor_type;location;lat;lon;timestamp;noise_LAeq;noise_LA_min;noise_LA_max;noise_LA01;noise_LA95
186;Laerm;55473;48.800;9.002;2024-03-08T00:00:24;38.46;35.82;46.78;;
186;Laerm;55473;48.800;9.002;2024-03-08T00:02:49;37.74;35.56;40.94;;
186;Laerm;55473;48.800;9.002;2024-03-08T00:05:16;39.08;35.62;45.20;;
186;Laerm;55473;48.800;9.002;2024-03-08T00:07:50;37.81;35.38;47.29;;
186;Laerm;55473;48.800;9.002;2024-03-08T00:10:16;38.41;35.74;42.09;;
186;Laerm;55473;48.800;9.002;2024-03-08T00:12:44;39.33;36.66;45.00;;
186;Laerm;55473;48.800;9.002;2024-03-08T00:15:12;44.46;36.12;55.98;;
186;Laerm;55473;48.800;9.002;2024-03-08T00:17:44;39.00;36.23;45.13;;
186;Laerm;55473;48.800;9.002;2024-03-08T00:20:10;38.96;36.43;45.93;;
186;Laerm;55473;48.800;9.002;2024-03-08T00:22:39;38.53;35.87;41.89;;
186;Laerm;55473;48.800;9.002;2024-03-08T00:25:09;38.21;35.76;42.50;;
186;Laerm;55473;48.800;9.002;2024-03-08T00:27:36;38.35;35.64;42.19;;
186;Laerm;55473;48.800;9.002;2024-03-08T00:30:07;38.26;35.85;41.40;;
186;Laerm;55473;48.800;9.002;2024-03-08T00:32:33;38.45;36.15;41.72;;
186;Laerm;55473;48.800;9.002;2024-03-08T00:34:59;38.70;36.11;49.80;;
186;Laerm;55473;48.800;9.002;2024-03-08T00:37:25;38.58;36.10;44.06;;
186;Laerm;55473;48.800;9.002;2024-03-08T00:39:52;38.73;36.07;46.99;;
186;Laerm;55473;48.800;9.002;2024-03-08T00:42:19;38.96;36.21;42.96;;
186;Laerm;55473;48.800;9.002;2024-03-08T00:44:46;39.15;36.35;44.05;;
186;Laerm;55473;48.800;9.002;2024-03-08T00:47:13;38.41;35.91;44.01;;
186;Laerm;55473;48.800;9.002;2024-03-08T00:49:41;39.00;36.18;46.40;;
186;Laerm;55473;48.800;9.002;2024-03-08T00:52:08;37.59;34.83;40.99;;
186;Laerm;55473;48.800;9.002;2024-03-08T00:54:35;37.92;35.26;41.39;;
186;Laerm;55473;48.800;9.002;2024-03-08T00:57:04;37.84;35.60;41.06;;
186;Laerm;55473;48.800;9.002;2024-03-08T00:59:30;38.63;36.04;42.01;;
186;Laerm;55473;48.800;9.002;2024-03-08T01:02:02;39.65;35.91;50.68;;
186;Laerm;55473;48.800;9.002;2024-03-08T01:04:28;39.18;35.89;50.71;;
186;Laerm;55473;48.800;9.002;2024-03-08T01:06:58;39.44;35.14;50.21;;
186;Laerm;55473;48.800;9.002;2024-03-08T01:09:25;40.01;35.95;53.12;;
186;Laerm;55473;48.800;9.002;2024-03-08T01:11:53;39.96;35.31;53.25;;
186;Laerm;55473;48.800;9.002;2024-03-08T01:14:23;40.17;35.70;54.18;;
186;Laerm;55473;48.800;9.002;2024-03-08T01:16:51;40.40;35.65;53.25;;
186;Laerm;55473;48.800;9.002;2024-03-08T01:19:17;39.90;35.92;53.73;;
186;Laerm;55473;48.800;9.002;2024-03-08T01:21:43;39.64;36.07;51.10;;
186;Laerm;55473;48.800;9.002;2024-03-08T01:24:09;39.56;35.83;52.21;;
186;Laerm;55473;48.800;9.002;2024-03-08T01:26:35;39.89;35.76;51.48;;
186;Laerm;55473;48.800;9.002;2024-03-08T01:29:02;40.37;36.29;53.80;;
186;Laerm;55473;48.800;9.002;2024-03-08T01:31:32;39.89;36.06;50.94;;
186;Laerm;55473;48.800;9.002;2024-03-08T01:33:58;40.22;35.77;54.32;;
186;Laerm;55473;48.800;9.002;2024-03-08T01:36:25;39.78;35.55;51.47;;
186;Laerm;55473;48.800;9.002;2024-03-08T01:38:52;40.01;36.37;53.51;;
186;Laerm;55473;48.800;9.002;2024-03-08T01:41:18;39.50;35.99;50.62;;
186;Laerm;55473;48.800;9.002;2024-03-08T01:43:44;38.95;35.68;47.09;;
186;Laerm;55473;48.800;9.002;2024-03-08T01:46:15;39.24;35.94;51.54;;
186;Laerm;55473;48.800;9.002;2024-03-08T01:48:43;39.12;35.60;51.77;;
186;Laerm;55473;48.800;9.002;2024-03-08T01:51:09;38.57;35.60;50.53;;
186;Laerm;55473;48.800;9.002;2024-03-08T01:53:43;38.44;35.53;45.87;;
186;Laerm;55473;48.800;9.002;2024-03-08T01:56:11;38.53;35.85;44.76;;
186;Laerm;55473;48.800;9.002;2024-03-08T01:58:43;38.86;36.03;45.81;;
186;Laerm;55473;48.800;9.002;2024-03-08T02:01:12;38.98;35.99;46.86;;
186;Laerm;55473;48.800;9.002;2024-03-08T02:03:40;39.35;35.86;47.91;;
186;Laerm;55473;48.800;9.002;2024-03-08T02:06:06;38.89;35.80;46.27;;
186;Laerm;55473;48.800;9.002;2024-03-08T02:08:36;38.71;36.11;43.22;;
186;Laerm;55473;48.800;9.002;2024-03-08T02:11:02;38.50;35.93;43.82;;
186;Laerm;55473;48.800;9.002;2024-03-08T02:13:32;38.35;35.94;44.14;;
186;Laerm;55473;48.800;9.002;2024-03-08T02:16:00;38.87;36.12;43.54;;
186;Laerm;55473;48.800;9.002;2024-03-08T02:18:29;38.58;36.14;43.58;;
186;Laerm;55473;48.800;9.002;2024-03-08T02:20:59;38.70;36.08;43.44;;
186;Laerm;55473;48.800;9.002;2024-03-08T02:23:26;38.59;36.11;44.42;;
186;Laerm;55473;48.800;9.002;2024-03-08T02:25:54;38.72;36.12;43.16;;
186;Laerm;55473;48.800;9.002;2024-03-08T02:28:22;38.73;36.20;44.81;;
186;Laerm;55473;48.800;9.002;2024-03-08T02:30:49;39.29;35.97;45.40;;
186;Laerm;55473;48.800;9.002;2024-03-08T02:33:27;39.21;36.20;45.93;;
186;Laerm;55473;48.800;9.002;2024-03-08T02:35:53;39.39;36.27;46.76;;
186;Laerm;55473;48.800;9.002;2024-03-08T02:38:22;38.93;36.07;47.91;;
186;Laerm;55473;48.800;9.002;2024-03-08T02:40:53;38.60;35.85;42.57;;
186;Laerm;55473;48.800;9.002;2024-03-08T02:43:21;39.37;36.48;45.43;;
186;Laerm;55473;48.800;9.002;2024-03-08T02:45:51;38.46;35.93;44.63;;
186;Laerm;55473;48.800;9.002;2024-03-08T02:48:18;38.37;35.79;42.98;;
186;Laerm;55473;48.800;9.002;2024-03-08T02:50:44;39.48;36.43;43.78;;
186;Laerm;55473;48.800;9.002;2024-03-08T02:53:11;38.68;36.19;42.05;;
186;Laerm;55473;48.800;9.002;2024-03-08T02:55:39;38.42;35.68;44.61;;
186;Laerm;55473;48.800;9.002;2024-03-08T02:58:07;38.97;36.06;43.73;;
186;Laerm;55473;48.800;9.002;2024-03-08T03:00:37;38.79;36.06;44.79;;
186;Laerm;55473;48.800;9.002;2024-03-08T03:03:05;38.63;35.92;43.11;;
186;Laerm;55473;48.800;9.002;2024-03-08T03:05:32;38.89;35.97;45.81;;
186;Laerm;55473;48.800;9.002;2024-03-08T03:07:59;40.10;36.30;48.31;;
186;Laerm;55473;48.800;9.002;2024-03-08T03:10:25;39.27;36.16;45.34;;
186;Laerm;55473;48.800;9.002;2024-03-08T03:12:54;39.98;36.78;53.04;;
186;Laerm;55473;48.800;9.002;2024-03-08T03:15:20;39.07;36.53;44.27;;
186;Laerm;55473;48.800;9.002;2024-03-08T03:17:50;39.91;37.11;47.26;;
186;Laerm;55473;48.800;9.002;2024-03-08T03:20:18;39.60;35.93;45.97;;
186;Laerm;55473;48.800;9.002;2024-03-08T03:22:58;39.50;36.90;50.22;;
186;Laerm;55473;48.800;9.002;2024-03-08T03:25:27;40.05;36.99;45.48;;
186;Laerm;55473;48.800;9.002;2024-03-08T03:28:02;39.56;36.93;46.14;;
186;Laerm;55473;48.800;9.002;2024-03-08T03:30:28;39.72;36.60;46.60;;
186;Laerm;55473;48.800;9.002;2024-03-08T03:33:03;39.77;36.89;49.84;;
186;Laerm;55473;48.800;9.002;2024-03-08T03:35:33;39.73;36.78;55.49;;
186;Laerm;55473;48.800;9.002;2024-03-08T03:37:59;41.98;36.54;54.77;;
186;Laerm;55473;48.800;9.002;2024-03-08T03:40:34;42.74;37.43;54.36;;
186;Laerm;55473;48.800;9.002;2024-03-08T03:43:02;42.48;37.42;55.07;;
186;Laerm;55473;48.800;9.002;2024-03-08T03:45:31;41.46;36.98;52.23;;
186;Laerm;55473;48.800;9.002;2024-03-08T03:48:07;42.20;37.93;53.38;;
186;Laerm;55473;48.800;9.002;2024-03-08T03:50:36;41.85;37.68;53.33;;
186;Laerm;55473;48.800;9.002;2024-03-08T03:53:03;43.32;38.31;53.49;;
186;Laerm;55473;48.800;9.002;2024-03-08T03:55:29;41.68;37.45;51.93;;
186;Laerm;55473;48.800;9.002;2024-03-08T03:57:55;42.16;37.95;52.49;;
186;Laerm;55473;48.800;9.002;2024-03-08T04:00:21;42.94;37.66;54.45;;
186;Laerm;55473;48.800;9.002;2024-03-08T04:02:47;43.41;38.44;55.88;;
186;Laerm;55473;48.800;9.002;2024-03-08T04:05:16;43.19;37.67;54.65;;
186;Laerm;55473;48.800;9.002;2024-03-08T04:07:42;42.61;38.05;53.68;;
186;Laerm;55473;48.800;9.002;2024-03-08T04:10:11;42.79;38.29;52.98;;
186;Laerm;55473;48.800;9.002;2024-03-08T04:12:38;51.43;38.73;67.66;;
186;Laerm;55473;48.800;9.002;2024-03-08T04:15:05;51.82;38.18;68.39;;
186;Laerm;55473;48.800;9.002;2024-03-08T04:17:34;54.21;38.32;69.45;;
186;Laerm;55473;48.800;9.002;2024-03-08T04:20:04;54.39;39.94;69.81;;
186;Laerm;55473;48.800;9.002;2024-03-08T04:22:38;49.90;38.16;63.99;;
186;Laerm;55473;48.800;9.002;2024-03-08T04:25:06;48.05;37.48;63.34;;
186;Laerm;55473;48.800;9.002;2024-03-08T04:27:33;47.07;38.22;64.70;;
186;Laerm;55473;48.800;9.002;2024-03-08T04:30:00;44.24;38.19;59.31;;
186;Laerm;55473;48.800;9.002;2024-03-08T04:32:26;44.56;38.53;57.30;;
186;Laerm;55473;48.800;9.002;2024-03-08T04:34:54;44.76;39.68;58.20;;
186;Laerm;55473;48.800;9.002;2024-03-08T04:37:19;47.27;39.22;62.08;;
186;Laerm;55473;48.800;9.002;2024-03-08T04:39:48;52.50;39.33;68.59;;
186;Laerm;55473;48.800;9.002;2024-03-08T04:42:15;54.67;39.36;70.30;;
186;Laerm;55473;48.800;9.002;2024-03-08T04:44:41;51.05;38.91;65.61;;
186;Laerm;55473;48.800;9.002;2024-03-08T04:47:07;49.06;40.46;63.45;;
186;Laerm;55473;48.800;9.002;2024-03-08T04:49:34;50.36;39.79;63.12;;
186;Laerm;55473;48.800;9.002;2024-03-08T04:52:03;50.49;40.63;64.04;;
186;Laerm;55473;48.800;9.002;2024-03-08T04:54:30;50.08;40.43;63.48;;
186;Laerm;55473;48.800;9.002;2024-03-08T04:56:56;51.83;40.99;66.33;;
186;Laerm;55473;48.800;9.002;2024-03-08T04:59:22;55.48;40.74;70.59;;
186;Laerm;55473;48.800;9.002;2024-03-08T05:01:47;56.59;41.84;69.62;;
186;Laerm;55473;48.800;9.002;2024-03-08T05:04:14;54.71;42.23;68.56;;
186;Laerm;55473;48.800;9.002;2024-03-08T05:06:40;52.11;40.42;67.76;;
186;Laerm;55473;48.800;9.002;2024-03-08T05:09:06;57.09;41.88;68.78;;
186;Laerm;55473;48.800;9.002;2024-03-08T05:11:46;59.44;41.47;71.47;;
186;Laerm;55473;48.800;9.002;2024-03-08T05:14:14;58.57;46.05;71.35;;
186;Laerm;55473;48.800;9.002;2024-03-08T05:16:48;58.84;44.42;70.16;;
186;Laerm;55473;48.800;9.002;2024-03-08T05:19:18;56.53;43.34;71.82;;
186;Laerm;55473;48.800;9.002;2024-03-08T05:21:49;52.63;42.08;66.67;;
186;Laerm;55473;48.800;9.002;2024-03-08T05:24:16;48.92;41.14;63.95;;
186;Laerm;55473;48.800;9.002;2024-03-08T05:26:42;50.83;40.82;64.24;;
186;Laerm;55473;48.800;9.002;2024-03-08T05:29:08;47.81;41.40;60.95;;
186;Laerm;55473;48.800;9.002;2024-03-08T05:31:48;51.63;40.97;68.99;;
186;Laerm;55473;48.800;9.002;2024-03-08T05:34:18;49.09;42.32;62.27;;
186;Laerm;55473;48.800;9.002;2024-03-08T05:36:45;44.89;40.43;57.02;;
186;Laerm;55473;48.800;9.002;2024-03-08T05:39:13;45.68;41.09;56.97;;
186;Laerm;55473;48.800;9.002;2024-03-08T05:41:39;46.52;41.00;62.12;;
186;Laerm;55473;48.800;9.002;2024-03-08T05:44:06;47.55;41.52;61.30;;
186;Laerm;55473;48.800;9.002;2024-03-08T05:46:32;50.89;41.98;67.23;;
186;Laerm;55473;48.800;9.002;2024-03-08T05:48:58;47.93;42.08;61.38;;
186;Laerm;55473;48.800;9.002;2024-03-08T05:51:37;50.84;42.55;64.98;;
186;Laerm;55473;48.800;9.002;2024-03-08T05:54:12;50.71;42.74;70.41;;
186;Laerm;55473;48.800;9.002;2024-03-08T05:56:39;50.42;42.30;65.49;;
186;Laerm;55473;48.800;9.002;2024-03-08T05:59:12;50.58;43.08;65.22;;
186;Laerm;55473;48.800;9.002;2024-03-08T06:01:38;48.82;42.75;58.21;;
186;Laerm;55473;48.800;9.002;2024-03-08T06:04:06;50.78;43.65;61.38;;
186;Laerm;55473;48.800;9.002;2024-03-08T06:06:32;49.72;41.95;62.81;;
186;Laerm;55473;48.800;9.002;2024-03-08T06:08:59;52.84;41.74;67.84;;
186;Laerm;55473;48.800;9.002;2024-03-08T06:11:25;50.71;41.68;67.38;;
186;Laerm;55473;48.800;9.002;2024-03-08T06:13:56;51.41;41.90;69.37;;
186;Laerm;55473;48.800;9.002;2024-03-08T06:16:26;51.31;41.08;66.17;;
186;Laerm;55473;48.800;9.002;2024-03-08T06:18:58;52.97;42.45;72.50;;
186;Laerm;55473;48.800;9.002;2024-03-08T06:21:27;48.03;42.01;60.11;;
186;Laerm;55473;48.800;9.002;2024-03-08T06:23:56;47.58;42.49;59.34;;
186;Laerm;55473;48.800;9.002;2024-03-08T06:26:26;48.40;42.28;59.69;;
186;Laerm;55473;48.800;9.002;2024-03-08T06:28:54;48.76;42.57;64.11;;
186;Laerm;55473;48.800;9.002;2024-03-08T06:31:21;51.01;43.15;74.59;;
186;Laerm;55473;48.800;9.002;2024-03-08T06:33:47;49.66;42.18;68.14;;
186;Laerm;55473;48.800;9.002;2024-03-08T06:36:18;49.37;42.52;68.13;;
186;Laerm;55473;48.800;9.002;2024-03-08T06:38:45;48.70;42.96;61.89;;
186;Laerm;55473;48.800;9.002;2024-03-08T06:41:11;49.47;42.90;66.35;;
186;Laerm;55473;48.800;9.002;2024-03-08T06:43:45;48.52;43.43;63.94;;
186;Laerm;55473;48.800;9.002;2024-03-08T06:46:11;48.16;42.63;68.69;;
186;Laerm;55473;48.800;9.002;2024-03-08T06:48:41;48.86;44.39;63.75;;
186;Laerm;55473;48.800;9.002;2024-03-08T06:51:07;55.43;42.79;79.49;;
186;Laerm;55473;48.800;9.002;2024-03-08T06:53:33;59.03;44.87;72.24;;
186;Laerm;55473;48.800;9.002;2024-03-08T06:56:03;47.76;42.38;63.61;;
186;Laerm;55473;48.800;9.002;2024-03-08T06:58:29;47.90;41.78;58.86;;
186;Laerm;55473;48.800;9.002;2024-03-08T07:00:55;48.77;42.90;61.73;;
186;Laerm;55473;48.800;9.002;2024-03-08T07:03:24;46.86;42.78;58.51;;
186;Laerm;55473;48.800;9.002;2024-03-08T07:05:50;49.95;41.70;61.63;;
186;Laerm;55473;48.800;9.002;2024-03-08T07:08:16;47.16;41.33;64.31;;
186;Laerm;55473;48.800;9.002;2024-03-08T07:10:42;48.28;40.67;60.62;;
186;Laerm;55473;48.800;9.002;2024-03-08T07:13:08;51.53;40.71;65.99;;
186;Laerm;55473;48.800;9.002;2024-03-08T07:15:35;47.12;39.56;61.20;;
186;Laerm;55473;48.800;9.002;2024-03-08T07:18:01;50.55;42.47;75.84;;
186;Laerm;55473;48.800;9.002;2024-03-08T07:20:27;46.34;40.10;68.88;;
186;Laerm;55473;48.800;9.002;2024-03-08T07:22:54;46.22;39.78;60.59;;
186;Laerm;55473;48.800;9.002;2024-03-08T07:25:20;49.41;44.16;64.30;;
186;Laerm;55473;48.800;9.002;2024-03-08T07:27:52;49.83;44.02;64.20;;
186;Laerm;55473;48.800;9.002;2024-03-08T07:30:23;49.88;45.70;65.54;;
186;Laerm;55473;48.800;9.002;2024-03-08T07:33:08;54.54;43.50;73.96;;
186;Laerm;55473;48.800;9.002;2024-03-08T07:35:38;49.27;43.75;62.52;;
186;Laerm;55473;48.800;9.002;2024-03-08T07:38:05;49.26;40.73;59.40;;
186;Laerm;55473;48.800;9.002;2024-03-08T07:40:41;48.40;39.46;61.67;;
186;Laerm;55473;48.800;9.002;2024-03-08T07:43:10;47.06;39.83;66.35;;
186;Laerm;55473;48.800;9.002;2024-03-08T07:45:38;50.22;39.75;69.16;;
186;Laerm;55473;48.800;9.002;2024-03-08T07:48:05;48.45;40.42;60.76;;
186;Laerm;55473;48.800;9.002;2024-03-08T07:50:38;51.02;41.48;69.81;;
186;Laerm;55473;48.800;9.002;2024-03-08T07:53:07;51.13;39.24;69.07;;
186;Laerm;55473;48.800;9.002;2024-03-08T07:55:34;56.75;39.69;65.70;;
186;Laerm;55473;48.800;9.002;2024-03-08T07:58:01;50.51;37.98;62.96;;
186;Laerm;55473;48.800;9.002;2024-03-08T08:00:31;47.39;38.68;61.93;;
186;Laerm;55473;48.800;9.002;2024-03-08T08:02:57;45.59;38.88;59.94;;
186;Laerm;55473;48.800;9.002;2024-03-08T08:05:23;51.85;39.93;61.64;;
186;Laerm;55473;48.800;9.002;2024-03-08T08:07:49;45.15;38.41;59.78;;
186;Laerm;55473;48.800;9.002;2024-03-08T08:10:16;46.35;38.45;58.86;;
186;Laerm;55473;48.800;9.002;2024-03-08T08:12:48;46.74;39.72;62.83;;
186;Laerm;55473;48.800;9.002;2024-03-08T08:15:14;45.61;39.65;62.27;;
186;Laerm;55473;48.800;9.002;2024-03-08T08:17:47;45.09;38.82;62.78;;
186;Laerm;55473;48.800;9.002;2024-03-08T08:20:13;50.92;39.73;64.68;;
186;Laerm;55473;48.800;9.002;2024-03-08T08:22:42;45.77;38.04;60.33;;
186;Laerm;55473;48.800;9.002;2024-03-08T08:25:13;42.56;39.04;54.11;;
186;Laerm;55473;48.800;9.002;2024-03-08T08:27:41;42.90;37.67;50.09;;
186;Laerm;55473;48.800;9.002;2024-03-08T08:30:11;46.62;39.68;65.85;;
186;Laerm;55473;48.800;9.002;2024-03-08T08:32:37;48.02;39.53;58.96;;
186;Laerm;55473;48.800;9.002;2024-03-08T08:35:06;46.45;39.70;60.04;;
186;Laerm;55473;48.800;9.002;2024-03-08T08:37:33;44.74;38.65;60.17;;
186;Laerm;55473;48.800;9.002;2024-03-08T08:40:03;46.64;38.88;63.81;;
186;Laerm;55473;48.800;9.002;2024-03-08T08:42:38;45.03;39.28;59.47;;
186;Laerm;55473;48.800;9.002;2024-03-08T08:45:05;44.10;38.66;56.82;;
186;Laerm;55473;48.800;9.002;2024-03-08T08:47:35;45.43;40.56;60.73;;
186;Laerm;55473;48.800;9.002;2024-03-08T08:50:02;56.49;40.44;77.72;;
186;Laerm;55473;48.800;9.002;2024-03-08T08:52:30;44.19;39.47;61.99;;
186;Laerm;55473;48.800;9.002;2024-03-08T08:54:57;44.30;40.40;52.54;;
186;Laerm;55473;48.800;9.002;2024-03-08T08:57:23;44.96;39.37;69.41;;
186;Laerm;55473;48.800;9.002;2024-03-08T08:59:49;46.24;41.21;55.39;;
186;Laerm;55473;48.800;9.002;2024-03-08T09:02:15;46.94;39.69;63.56;;
186;Laerm;55473;48.800;9.002;2024-03-08T09:04:43;45.31;38.77;62.40;;
186;Laerm;55473;48.800;9.002;2024-03-08T09:07:11;46.98;38.07;63.01;;
186;Laerm;55473;48.800;9.002;2024-03-08T09:09:39;51.21;38.07;66.30;;
186;Laerm;55473;48.800;9.002;2024-03-08T09:12:05;49.22;39.19;61.86;;
186;Laerm;55473;48.800;9.002;2024-03-08T09:14:34;43.72;38.29;53.82;;
186;Laerm;55473;48.800;9.002;2024-03-08T09:17:00;44.38;39.23;62.28;;
186;Laerm;55473;48.800;9.002;2024-03-08T09:19:26;45.43;38.50;63.52;;
186;Laerm;55473;48.800;9.002;2024-03-08T09:21:52;44.81;40.03;58.66;;
186;Laerm;55473;48.800;9.002;2024-03-08T09:24:18;44.10;39.32;55.13;;
186;Laerm;55473;48.800;9.002;2024-03-08T09:26:44;44.64;40.04;58.63;;
186;Laerm;55473;48.800;9.002;2024-03-08T09:29:10;45.45;39.89;55.51;;
186;Laerm;55473;48.800;9.002;2024-03-08T09:31:37;47.07;39.98;60.71;;
186;Laerm;55473;48.800;9.002;2024-03-08T09:34:06;45.26;39.60;56.49;;
186;Laerm;55473;48.800;9.002;2024-03-08T09:36:34;44.08;39.07;62.18;;
186;Laerm;55473;48.800;9.002;2024-03-08T09:39:00;43.31;39.99;49.92;;
186;Laerm;55473;48.800;9.002;2024-03-08T09:41:26;44.64;40.03;61.51;;
186;Laerm;55473;48.800;9.002;2024-03-08T09:43:53;55.17;39.82;68.04;;
186;Laerm;55473;48.800;9.002;2024-03-08T09:46:19;44.78;39.87;56.74;;
186;Laerm;55473;48.800;9.002;2024-03-08T09:48:48;47.88;40.23;60.19;;
186;Laerm;55473;48.800;9.002;2024-03-08T09:51:14;46.37;40.33;62.22;;
186;Laerm;55473;48.800;9.002;2024-03-08T09:53:41;47.84;40.25;61.23;;
186;Laerm;55473;48.800;9.002;2024-03-08T09:56:10;45.40;39.71;58.97;;
186;Laerm;55473;48.800;9.002;2024-03-08T09:58:37;47.98;40.16;57.13;;
186;Laerm;55473;48.800;9.002;2024-03-08T10:01:19;46.79;40.07;61.84;;
186;Laerm;55473;48.800;9.002;2024-03-08T10:03:47;46.89;40.01;59.31;;
186;Laerm;55473;48.800;9.002;2024-03-08T10:06:14;44.78;38.54;55.68;;
186;Laerm;55473;48.800;9.002;2024-03-08T10:08:40;45.54;39.69;60.30;;
186;Laerm;55473;48.800;9.002;2024-03-08T10:11:07;43.88;38.53;55.13;;
186;Laerm;55473;48.800;9.002;2024-03-08T10:13:33;49.51;41.01;74.46;;
186;Laerm;55473;48.800;9.002;2024-03-08T10:16:00;46.85;40.49;67.07;;
186;Laerm;55473;48.800;9.002;2024-03-08T10:18:26;48.98;40.39;65.81;;
186;Laerm;55473;48.800;9.002;2024-03-08T10:21:07;45.83;39.61;57.16;;
186;Laerm;55473;48.800;9.002;2024-03-08T10:23:34;46.00;38.88;64.72;;
186;Laerm;55473;48.800;9.002;2024-03-08T10:26:15;44.64;38.29;61.78;;
186;Laerm;55473;48.800;9.002;2024-03-08T10:28:49;45.15;38.69;66.35;;
186;Laerm;55473;48.800;9.002;2024-03-08T10:31:16;54.25;39.52;64.79;;
186;Laerm;55473;48.800;9.002;2024-03-08T10:33:42;44.03;40.00;55.96;;
186;Laerm;55473;48.800;9.002;2024-03-08T10:36:14;47.52;40.67;66.11;;
186;Laerm;55473;48.800;9.002;2024-03-08T10:38:43;45.71;38.97;58.16;;
186;Laerm;55473;48.800;9.002;2024-03-08T10:41:13;44.40;38.99;56.39;;
186;Laerm;55473;48.800;9.002;2024-03-08T10:49:35;49.18;40.87;58.55;;
186;Laerm;55473;48.800;9.002;2024-03-08T10:52:05;43.58;38.49;55.91;;
186;Laerm;55473;48.800;9.002;2024-03-08T10:54:37;46.31;38.03;67.63;;
186;Laerm;55473;48.800;9.002;2024-03-08T10:57:08;45.84;38.39;65.61;;
186;Laerm;55473;48.800;9.002;2024-03-08T10:59:36;47.31;38.73;62.34;;
186;Laerm;55473;48.800;9.002;2024-03-08T11:02:03;47.06;38.82;57.58;;
186;Laerm;55473;48.800;9.002;2024-03-08T11:04:31;49.51;42.19;63.50;;
186;Laerm;55473;48.800;9.002;2024-03-08T11:07:03;47.19;41.83;57.70;;
186;Laerm;55473;48.800;9.002;2024-03-08T11:09:36;45.27;40.04;56.16;;
186;Laerm;55473;48.800;9.002;2024-03-08T11:12:27;47.90;40.52;64.86;;
186;Laerm;55473;48.800;9.002;2024-03-08T11:15:18;46.26;40.40;62.01;;
186;Laerm;55473;48.800;9.002;2024-03-08T11:20:18;45.62;41.16;59.78;;
186;Laerm;55473;48.800;9.002;2024-03-08T11:22:55;46.12;39.64;63.05;;
186;Laerm;55473;48.800;9.002;2024-03-08T11:25:37;45.23;40.69;56.69;;
186;Laerm;55473;48.800;9.002;2024-03-08T11:33:31;46.72;39.53;57.25;;
186;Laerm;55473;48.800;9.002;2024-03-08T11:36:10;47.08;38.69;61.70;;
186;Laerm;55473;48.800;9.002;2024-03-08T11:38:46;47.31;39.80;68.74;;
186;Laerm;55473;48.800;9.002;2024-03-08T11:41:20;44.38;40.29;56.63;;
186;Laerm;55473;48.800;9.002;2024-03-08T11:44:03;45.64;38.82;56.51;;
186;Laerm;55473;48.800;9.002;2024-03-08T11:46:32;45.29;40.35;56.13;;
186;Laerm;55473;48.800;9.002;2024-03-08T11:49:00;45.53;39.98;56.42;;
186;Laerm;55473;48.800;9.002;2024-03-08T11:51:27;47.85;39.90;68.12;;
186;Laerm;55473;48.800;9.002;2024-03-08T11:53:53;46.76;38.90;62.59;;
186;Laerm;55473;48.800;9.002;2024-03-08T11:56:19;45.28;38.86;58.83;;
186;Laerm;55473;48.800;9.002;2024-03-08T11:58:56;48.29;39.45;62.98;;
186;Laerm;55473;48.800;9.002;2024-03-08T12:01:23;45.10;40.67;56.84;;
186;Laerm;55473;48.800;9.002;2024-03-08T12:03:54;48.77;41.34;70.36;;
186;Laerm;55473;48.800;9.002;2024-03-08T12:06:21;50.48;42.79;70.08;;
186;Laerm;55473;48.800;9.002;2024-03-08T12:08:47;57.21;42.96;79.40;;
186;Laerm;55473;48.800;9.002;2024-03-08T12:11:22;49.81;41.22;66.64;;
186;Laerm;55473;48.800;9.002;2024-03-08T12:13:51;50.36;42.07;68.97;;
186;Laerm;55473;48.800;9.002;2024-03-08T12:16:18;48.95;41.27;71.78;;
186;Laerm;55473;48.800;9.002;2024-03-08T12:18:44;47.73;40.23;60.08;;
186;Laerm;55473;48.800;9.002;2024-03-08T12:21:12;45.60;39.69;53.57;;
186;Laerm;55473;48.800;9.002;2024-03-08T12:23:46;43.67;37.85;56.43;;
186;Laerm;55473;48.800;9.002;2024-03-08T12:26:24;46.19;38.80;64.53;;
186;Laerm;55473;48.800;9.002;2024-03-08T12:28:52;45.41;39.03;58.87;;
186;Laerm;55473;48.800;9.002;2024-03-08T12:31:19;43.85;39.48;55.76;;
186;Laerm;55473;48.800;9.002;2024-03-08T12:33:55;47.39;39.88;60.00;;
186;Laerm;55473;48.800;9.002;2024-03-08T12:36:25;42.46;38.19;52.14;;
186;Laerm;55473;48.800;9.002;2024-03-08T12:38:53;43.46;38.40;52.24;;
186;Laerm;55473;48.800;9.002;2024-03-08T12:41:20;50.96;40.16;69.09;;
186;Laerm;55473;48.800;9.002;2024-03-08T12:43:47;52.26;39.78;77.52;;
186;Laerm;55473;48.800;9.002;2024-03-08T12:46:22;43.82;39.34;61.22;;
186;Laerm;55473;48.800;9.002;2024-03-08T12:48:48;45.66;39.75;61.90;;
186;Laerm;55473;48.800;9.002;2024-03-08T12:51:16;43.70;38.72;57.86;;
186;Laerm;55473;48.800;9.002;2024-03-08T12:53:44;43.98;38.53;57.46;;
186;Laerm;55473;48.800;9.002;2024-03-08T12:56:12;44.09;37.69;58.57;;
186;Laerm;55473;48.800;9.002;2024-03-08T12:58:39;45.23;38.16;61.46;;
186;Laerm;55473;48.800;9.002;2024-03-08T13:01:06;44.63;38.63;57.68;;
186;Laerm;55473;48.800;9.002;2024-03-08T13:03:34;44.11;39.02;67.55;;
186;Laerm;55473;48.800;9.002;2024-03-08T13:06:03;43.04;39.21;61.43;;
186;Laerm;55473;48.800;9.002;2024-03-08T13:08:37;42.97;38.13;60.30;;
186;Laerm;55473;48.800;9.002;2024-03-08T13:11:06;46.32;38.79;66.72;;
186;Laerm;55473;48.800;9.002;2024-03-08T13:13:33;44.18;38.96;57.02;;
186;Laerm;55473;48.800;9.002;2024-03-08T13:16:03;46.28;39.54;59.09;;
186;Laerm;55473;48.800;9.002;2024-03-08T13:18:29;49.74;40.67;67.17;;
186;Laerm;55473;48.800;9.002;2024-03-08T13:20:55;46.45;37.86;63.68;;
186;Laerm;55473;48.800;9.002;2024-03-08T13:23:23;45.02;38.55;55.26;;
186;Laerm;55473;48.800;9.002;2024-03-08T13:25:48;43.81;38.32;55.10;;
186;Laerm;55473;48.800;9.002;2024-03-08T13:28:15;43.70;38.93;52.63;;
186;Laerm;55473;48.800;9.002;2024-03-08T13:30:41;43.74;39.53;56.90;;
186;Laerm;55473;48.800;9.002;2024-03-08T13:33:07;45.22;39.60;60.58;;
186;Laerm;55473;48.800;9.002;2024-03-08T13:35:33;43.33;39.21;53.68;;
186;Laerm;55473;48.800;9.002;2024-03-08T13:38:00;45.66;39.44;59.97;;
186;Laerm;55473;48.800;9.002;2024-03-08T13:40:28;45.00;38.33;60.39;;
186;Laerm;55473;48.800;9.002;2024-03-08T13:42:54;42.80;37.83;61.48;;
186;Laerm;55473;48.800;9.002;2024-03-08T13:45:20;45.55;38.55;65.08;;
186;Laerm;55473;48.800;9.002;2024-03-08T13:47:50;46.14;39.63;59.11;;
186;Laerm;55473;48.800;9.002;2024-03-08T13:50:20;43.86;39.27;58.24;;
186;Laerm;55473;48.800;9.002;2024-03-08T13:52:50;45.52;39.84;57.63;;
186;Laerm;55473;48.800;9.002;2024-03-08T13:55:20;47.69;39.15;60.47;;
186;Laerm;55473;48.800;9.002;2024-03-08T13:57:50;42.87;39.70;51.38;;
186;Laerm;55473;48.800;9.002;2024-03-08T14:00:19;48.95;39.69;62.15;;
186;Laerm;55473;48.800;9.002;2024-03-08T14:02:50;51.17;41.25;67.96;;
186;Laerm;55473;48.800;9.002;2024-03-08T14:05:19;47.85;42.37;64.60;;
186;Laerm;55473;48.800;9.002;2024-03-08T14:07:46;44.93;38.67;57.91;;
186;Laerm;55473;48.800;9.002;2024-03-08T14:10:15;48.20;40.78;65.97;;
186;Laerm;55473;48.800;9.002;2024-03-08T14:12:41;43.12;38.89;60.03;;
186;Laerm;55473;48.800;9.002;2024-03-08T14:15:09;54.47;39.63;74.06;;
186;Laerm;55473;48.800;9.002;2024-03-08T14:17:36;47.95;40.45;59.26;;
186;Laerm;55473;48.800;9.002;2024-03-08T14:20:03;46.00;40.32;66.27;;
186;Laerm;55473;48.800;9.002;2024-03-08T14:22:29;51.34;39.67;64.48;;
186;Laerm;55473;48.800;9.002;2024-03-08T14:24:57;46.09;38.97;57.78;;
186;Laerm;55473;48.800;9.002;2024-03-08T14:27:23;47.34;40.52;70.68;;
186;Laerm;55473;48.800;9.002;2024-03-08T14:29:48;46.14;39.38;63.11;;